createdAt,value
2023-01-20T00:01:47.792Z,72.65
2023-01-20T00:04:15.193Z,72.62
2023-01-20T00:06:41.685Z,72.63
2023-01-20T00:09:08.120Z,72.67
2023-01-20T00:11:34.556Z,72.61
2023-01-20T00:14:02.245Z,72.66
2023-01-20T00:16:31.758Z,72.74
2023-01-20T00:18:58.498Z,72.63
2023-01-20T00:21:24.949Z,72.62
2023-01-20T00:23:51.544Z,72.78
2023-01-20T00:26:21.998Z,72.65
2023-01-20T00:28:50.002Z,72.79
2023-01-20T00:31:25.839Z,72.74
2023-01-20T00:33:54.924Z,72.76
2023-01-20T00:36:22.847Z,72.75
2023-01-20T00:38:49.497Z,72.75
2023-01-20T00:41:16.971Z,72.74
2023-01-20T00:43:43.685Z,72.82
2023-01-20T00:46:11.065Z,72.79
2023-01-20T00:48:37.742Z,72.88
2023-01-20T00:51:06.261Z,72.95
2023-01-20T00:53:32.722Z,72.93
2023-01-20T00:55:59.177Z,72.84
2023-01-20T00:58:26.189Z,72.79
2023-01-20T01:00:55.147Z,72.79
2023-01-20T01:03:22.444Z,72.84
2023-01-20T01:05:48.879Z,72.96
2023-01-20T01:08:15.349Z,72.74
2023-01-20T01:10:41.815Z,73.03
2023-01-20T01:13:08.917Z,72.80
2023-01-20T01:15:35.802Z,72.91
2023-01-20T01:18:02.769Z,72.99
2023-01-20T01:20:29.227Z,72.97
2023-01-20T01:22:56.217Z,73.03
2023-01-20T01:25:22.713Z,73.08
2023-01-20T01:27:49.159Z,72.91
2023-01-20T01:30:15.593Z,73.10
2023-01-20T01:32:42.122Z,73.15
2023-01-20T01:35:08.940Z,73.03
2023-01-20T01:37:35.803Z,73.27
2023-01-20T01:40:02.317Z,73.27
2023-01-20T01:42:28.750Z,73.23
2023-01-20T01:45:10.462Z,73.20
2023-01-20T01:47:40.216Z,73.18
2023-01-20T01:50:11.233Z,73.17
2023-01-20T01:52:41.305Z,73.17
2023-01-20T01:55:08.436Z,73.21
2023-01-20T01:57:35.560Z,73.15
2023-01-20T02:00:04.160Z,73.14
2023-01-20T02:02:40.158Z,73.42
2023-01-20T02:05:07.002Z,73.14
2023-01-20T02:07:34.139Z,73.18
2023-01-20T02:10:01.619Z,73.17
2023-01-20T02:12:29.168Z,73.06
2023-01-20T02:14:59.005Z,72.84
2023-01-20T02:17:43.802Z,73.03
2023-01-20T02:20:47.826Z,72.97
2023-01-20T02:23:25.392Z,72.96
2023-01-20T02:26:30.524Z,72.73
2023-01-20T02:29:08.663Z,72.71
2023-01-20T02:31:56.827Z,72.92
2023-01-20T02:34:32.892Z,72.93
2023-01-20T02:37:06.413Z,72.85
2023-01-20T02:40:05.928Z,72.84
2023-01-20T02:42:42.435Z,73.03
2023-01-20T02:45:23.830Z,72.78
2023-01-20T02:48:05.562Z,72.96
2023-01-20T02:50:42.953Z,72.85
2023-01-20T02:53:12.525Z,73.04
2023-01-20T02:55:44.115Z,72.91
2023-01-20T02:58:18.029Z,72.97
2023-01-20T03:00:46.084Z,73.02
2023-01-20T03:03:18.066Z,73.10
2023-01-20T03:05:54.651Z,72.89
2023-01-20T03:08:24.980Z,73.15
2023-01-20T03:10:54.513Z,72.98
2023-01-20T03:13:36.938Z,73.18
2023-01-20T03:16:09.748Z,73.09
2023-01-20T03:18:37.683Z,73.02
2023-01-20T03:21:06.970Z,73.11
2023-01-20T03:23:35.897Z,73.16
2023-01-20T03:26:06.898Z,73.07
2023-01-20T03:28:33.481Z,73.06
2023-01-20T03:31:02.664Z,72.93
2023-01-20T03:33:29.229Z,72.86
2023-01-20T03:35:55.748Z,72.88
2023-01-20T03:38:22.275Z,73.00
2023-01-20T03:41:00.419Z,72.84
2023-01-20T03:43:42.840Z,72.69
2023-01-20T03:46:19.291Z,72.52
2023-01-20T03:49:02.376Z,72.56
2023-01-20T03:51:43.284Z,72.72
2023-01-20T03:54:12.394Z,72.74
2023-01-20T03:56:49.451Z,72.69
2023-01-20T03:59:20.050Z,72.78
2023-01-20T04:01:47.055Z,72.65
2023-01-20T04:04:18.209Z,72.74
2023-01-20T04:06:46.073Z,72.66
2023-01-20T04:09:23.403Z,72.38
2023-01-20T04:11:51.274Z,72.80
2023-01-20T04:14:17.948Z,72.58
2023-01-20T04:16:51.890Z,72.58
2023-01-20T04:19:18.475Z,72.63
2023-01-20T04:21:50.033Z,72.75
2023-01-20T04:24:25.239Z,72.48
2023-01-20T04:26:51.806Z,72.57
2023-01-20T04:29:18.280Z,72.61
2023-01-20T04:31:44.779Z,72.39
2023-01-20T04:34:15.339Z,72.41
2023-01-20T04:36:42.679Z,72.52
2023-01-20T04:39:09.243Z,72.38
2023-01-20T04:41:35.685Z,72.52
2023-01-20T04:44:02.171Z,72.42
2023-01-20T04:46:28.627Z,72.47
2023-01-20T04:48:55.078Z,72.59
2023-01-20T04:51:21.529Z,72.45
2023-01-20T04:53:47.958Z,72.72
2023-01-20T04:56:15.475Z,72.65
2023-01-20T04:58:42.684Z,72.72
2023-01-20T05:01:09.654Z,72.59
2023-01-20T05:03:36.471Z,72.65
2023-01-20T05:06:03.378Z,72.74
2023-01-20T05:08:29.831Z,72.91
2023-01-20T05:10:56.268Z,72.58
2023-01-20T05:13:22.770Z,72.52
2023-01-20T05:15:49.391Z,72.73
2023-01-20T05:18:16.015Z,72.49
2023-01-20T05:20:45.919Z,72.57
2023-01-20T05:23:12.547Z,72.55
2023-01-20T05:25:39.391Z,72.57
2023-01-20T05:28:06.283Z,72.64
2023-01-20T05:30:33.062Z,72.48
2023-01-20T05:32:59.592Z,72.41
2023-01-20T05:35:26.182Z,72.69
2023-01-20T05:37:54.419Z,72.53
2023-01-20T05:40:21.595Z,72.30
2023-01-20T05:42:48.028Z,72.61
2023-01-20T05:45:14.747Z,72.53
2023-01-20T05:47:41.326Z,72.33
2023-01-20T05:50:08.326Z,72.30
2023-01-20T05:52:34.774Z,72.34
2023-01-20T05:55:01.200Z,72.46
2023-01-20T05:57:27.604Z,72.50
2023-01-20T05:59:55.613Z,72.43
2023-01-20T06:02:22.159Z,72.51
2023-01-20T06:04:49.472Z,72.34
2023-01-20T06:07:15.963Z,72.61
2023-01-20T06:09:42.365Z,72.24
2023-01-20T06:12:08.970Z,72.30
2023-01-20T06:14:35.452Z,72.41
2023-01-20T06:17:01.896Z,72.46
2023-01-20T06:19:28.310Z,72.27
2023-01-20T06:21:54.766Z,72.32
2023-01-20T06:24:21.208Z,72.31
2023-01-20T06:26:50.747Z,72.50
2023-01-20T06:29:17.235Z,72.59
2023-01-20T06:31:44.753Z,72.42
2023-01-20T06:34:11.975Z,72.37
2023-01-20T06:36:38.771Z,72.36
2023-01-20T06:39:05.463Z,72.28
2023-01-20T06:41:32.011Z,72.25
2023-01-20T06:43:58.457Z,72.20
2023-01-20T06:46:24.955Z,72.53
2023-01-20T06:48:51.589Z,72.21
2023-01-20T06:51:21.082Z,72.34
2023-01-20T06:53:47.582Z,72.37
2023-01-20T06:56:15.318Z,72.36
2023-01-20T06:58:42.618Z,72.28
2023-01-20T07:01:27.192Z,72.51
2023-01-20T07:03:54.238Z,72.22
2023-01-20T07:06:26.298Z,72.39
2023-01-20T07:08:53.194Z,72.08
2023-01-20T07:11:19.700Z,72.19
2023-01-20T07:13:46.257Z,72.12
2023-01-20T07:16:15.554Z,72.13
2023-01-20T07:18:43.532Z,72.14
2023-01-20T07:21:11.623Z,72.16
2023-01-20T07:23:38.062Z,72.12
2023-01-20T07:26:09.478Z,72.08
2023-01-20T07:28:36.839Z,72.21
2023-01-20T07:31:12.247Z,72.32
2023-01-20T07:33:39.332Z,72.22
2023-01-20T07:36:07.783Z,72.41
2023-01-20T07:38:34.742Z,72.41
2023-01-20T07:41:04.939Z,72.33
2023-01-20T07:43:32.468Z,72.18
2023-01-20T07:46:00.936Z,72.28
2023-01-20T07:48:29.820Z,72.13
2023-01-20T07:51:02.581Z,72.17
2023-01-20T07:53:30.295Z,72.30
2023-01-20T07:56:00.773Z,72.13
2023-01-20T07:58:27.763Z,72.23
2023-01-20T08:00:54.383Z,72.12
2023-01-20T08:03:20.867Z,72.11
2023-01-20T08:05:47.606Z,72.30
2023-01-20T08:08:14.064Z,72.10
2023-01-20T08:10:40.722Z,72.30
2023-01-20T08:13:07.173Z,72.17
2023-01-20T08:15:33.555Z,72.16
2023-01-20T08:18:00.301Z,72.30
2023-01-20T08:20:27.045Z,72.11
2023-01-20T08:22:53.512Z,72.03
2023-01-20T08:25:19.939Z,72.15
2023-01-20T08:27:48.434Z,71.86
2023-01-20T08:30:15.048Z,72.26
2023-01-20T08:32:41.516Z,72.49
2023-01-20T08:35:08.284Z,72.22
2023-01-20T08:37:36.993Z,72.11
2023-01-20T08:40:09.159Z,72.18
2023-01-20T08:42:39.247Z,72.25
2023-01-20T08:45:07.670Z,72.45
2023-01-20T08:47:46.086Z,72.06
2023-01-20T08:50:14.835Z,72.24
2023-01-20T08:52:42.061Z,72.30
2023-01-20T08:55:09.263Z,71.99
2023-01-20T08:57:35.847Z,72.09
2023-01-20T09:00:05.382Z,72.25
2023-01-20T09:02:32.017Z,72.23
2023-01-20T09:04:58.831Z,72.14
2023-01-20T09:07:26.872Z,72.20
2023-01-20T09:09:53.308Z,72.08
2023-01-20T09:12:20.697Z,72.08
2023-01-20T09:14:47.299Z,72.23
2023-01-20T09:17:14.676Z,72.24
2023-01-20T09:19:41.130Z,72.38
2023-01-20T09:22:07.615Z,71.98
2023-01-20T09:24:34.148Z,72.21
2023-01-20T09:27:00.569Z,72.30
2023-01-20T09:29:27.320Z,72.23
2023-01-20T09:31:58.051Z,72.23
2023-01-20T09:34:27.338Z,72.38
2023-01-20T09:36:58.549Z,72.15
2023-01-20T09:39:43.388Z,72.17
2023-01-20T09:43:13.310Z,72.35
2023-01-20T09:46:20.984Z,72.38
2023-01-20T09:49:45.272Z,72.32
2023-01-20T09:52:40.817Z,72.63
2023-01-20T09:55:17.107Z,72.36
2023-01-20T09:57:50.718Z,72.69
2023-01-20T10:00:23.645Z,72.48
2023-01-20T10:02:57.965Z,72.59
2023-01-20T10:05:32.910Z,72.46
2023-01-20T10:08:12.951Z,72.69
2023-01-20T10:10:53.898Z,72.59
2023-01-20T10:13:31.468Z,72.33
2023-01-20T10:16:02.093Z,72.56
2023-01-20T10:18:54.427Z,72.51
2023-01-20T10:21:37.791Z,72.62
2023-01-20T10:24:09.425Z,72.64
2023-01-20T10:26:59.109Z,72.49
2023-01-20T10:29:35.075Z,72.36
2023-01-20T10:32:04.074Z,72.52
2023-01-20T10:34:40.706Z,72.34
2023-01-20T10:37:10.377Z,72.35
2023-01-20T10:39:50.626Z,72.23
2023-01-20T10:42:18.872Z,72.33
2023-01-20T10:44:47.303Z,72.21
2023-01-20T10:47:24.206Z,72.15
2023-01-20T10:50:30.845Z,72.00
2023-01-20T10:53:33.530Z,71.95
2023-01-20T10:56:21.352Z,72.00
2023-01-20T10:58:47.884Z,72.03
2023-01-20T11:01:18.967Z,72.19
2023-01-20T11:03:48.340Z,72.09
2023-01-20T11:06:26.346Z,72.12
2023-01-20T11:08:53.805Z,72.13
2023-01-20T11:11:25.616Z,72.09
2023-01-20T11:13:53.173Z,72.04
2023-01-20T11:16:24.702Z,72.23
2023-01-20T11:18:57.845Z,72.01
2023-01-20T11:21:26.313Z,72.06
2023-01-20T11:23:57.703Z,72.21
2023-01-20T11:26:28.272Z,72.05
2023-01-20T11:29:24.141Z,72.06
2023-01-20T11:31:53.369Z,71.97
2023-01-20T11:34:24.201Z,72.04
2023-01-20T11:37:11.544Z,72.09
2023-01-20T11:39:58.039Z,71.96
2023-01-20T11:42:27.370Z,71.97
2023-01-20T11:45:20.218Z,71.94
2023-01-20T11:48:00.361Z,72.01
2023-01-20T11:50:39.465Z,71.63
2023-01-20T11:53:17.407Z,71.83
2023-01-20T11:55:50.294Z,71.92
2023-01-20T11:58:23.016Z,72.07
2023-01-20T12:00:52.368Z,71.87
2023-01-20T12:03:35.884Z,71.77
2023-01-20T12:06:23.004Z,71.54
2023-01-20T12:09:10.511Z,71.71
2023-01-20T12:11:51.950Z,71.51
2023-01-20T12:14:25.145Z,71.65
2023-01-20T12:17:16.595Z,71.71
2023-01-20T12:20:26.719Z,71.49
2023-01-20T12:23:30.183Z,71.42
2023-01-20T12:26:05.619Z,71.43
2023-01-20T12:28:51.539Z,71.66
2023-01-20T12:31:20.232Z,71.47
2023-01-20T12:33:59.440Z,71.63
2023-01-20T12:37:03.278Z,71.53
2023-01-20T12:39:32.944Z,71.68
2023-01-20T12:42:17.827Z,71.54
2023-01-20T12:45:00.774Z,71.25
2023-01-20T12:47:33.036Z,71.32
2023-01-20T12:50:29.984Z,71.24
2023-01-20T12:53:05.395Z,71.29
2023-01-20T12:55:44.857Z,71.26
2023-01-20T12:58:17.283Z,71.32
2023-01-20T13:01:28.220Z,70.81
2023-01-20T13:04:11.412Z,71.04
2023-01-20T13:06:58.057Z,71.17
2023-01-20T13:09:46.352Z,71.08
2023-01-20T13:12:33.993Z,71.00
2023-01-20T13:15:28.169Z,71.15
2023-01-20T13:18:16.612Z,70.79
2023-01-20T13:20:45.494Z,71.01
2023-01-20T13:23:20.341Z,70.98
2023-01-20T13:25:47.537Z,70.92
2023-01-20T13:28:23.722Z,70.87
2023-01-20T13:30:53.998Z,70.96
2023-01-20T13:33:35.876Z,70.81
2023-01-20T13:36:18.727Z,70.73
2023-01-20T13:38:46.781Z,70.92
2023-01-20T13:41:48.632Z,70.81
2023-01-20T13:44:42.598Z,70.71
2023-01-20T13:47:10.815Z,70.93
2023-01-20T13:49:50.158Z,70.66
2023-01-20T13:53:05.698Z,70.61
2023-01-20T13:55:41.001Z,70.65
2023-01-20T13:58:19.250Z,70.74
2023-01-20T14:00:48.487Z,70.77
2023-01-20T14:03:23.754Z,70.91
2023-01-20T14:05:54.425Z,70.91
2023-01-20T14:08:22.546Z,70.58
2023-01-20T14:10:49.440Z,70.62
2023-01-20T14:13:24.731Z,70.83
2023-01-20T14:15:55.725Z,70.74
2023-01-20T14:18:25.094Z,70.60
2023-01-20T14:20:59.775Z,70.81
2023-01-20T14:23:35.265Z,70.78
2023-01-20T14:26:05.881Z,70.64
2023-01-20T14:28:33.231Z,71.03
2023-01-20T14:31:25.436Z,70.74
2023-01-20T14:34:24.125Z,70.83
2023-01-20T14:36:51.531Z,70.49
2023-01-20T14:39:23.848Z,70.80
2023-01-20T14:42:20.694Z,70.73
2023-01-20T14:44:48.880Z,70.76
2023-01-20T14:47:15.898Z,70.44
2023-01-20T14:49:43.505Z,70.71
2023-01-20T14:52:21.662Z,70.37
2023-01-20T14:54:51.666Z,70.61
2023-01-20T14:57:29.146Z,70.20
2023-01-20T15:00:15.329Z,70.35
2023-01-20T15:03:01.039Z,70.61
2023-01-20T15:05:35.000Z,70.51
2023-01-20T15:08:26.252Z,70.15
2023-01-20T15:11:21.208Z,70.05
2023-01-20T15:13:53.621Z,70.01
2023-01-20T15:16:26.515Z,70.23
2023-01-20T15:19:18.535Z,70.04
2023-01-20T15:21:49.945Z,70.21
2023-01-20T15:24:20.750Z,70.14
2023-01-20T15:26:49.655Z,70.21
2023-01-20T15:29:27.649Z,70.07
2023-01-20T15:31:56.460Z,69.96
2023-01-20T15:34:24.163Z,69.98
2023-01-20T15:36:51.864Z,70.03
2023-01-20T15:39:20.666Z,69.67
2023-01-20T15:41:48.644Z,69.83
2023-01-20T15:44:15.352Z,69.76
2023-01-20T15:46:41.787Z,70.01
2023-01-20T15:49:14.735Z,69.83
2023-01-20T15:51:42.520Z,69.99
2023-01-20T15:54:09.333Z,70.09
2023-01-20T15:56:38.768Z,69.96
2023-01-20T15:59:16.587Z,69.93
2023-01-20T16:01:46.925Z,69.93
2023-01-20T16:04:13.416Z,69.93
2023-01-20T16:06:40.024Z,69.83
2023-01-20T16:09:23.728Z,69.81
2023-01-20T16:11:50.122Z,69.83
2023-01-20T16:14:16.573Z,69.87
2023-01-20T16:16:43.047Z,69.86
2023-01-20T16:19:13.464Z,69.80
2023-01-20T16:21:40.004Z,69.92
2023-01-20T16:24:07.053Z,70.06
2023-01-20T16:26:34.909Z,69.94
2023-01-20T16:29:01.345Z,70.03
2023-01-20T16:31:28.341Z,69.96
2023-01-20T16:33:55.739Z,70.10
2023-01-20T16:36:23.689Z,70.01
2023-01-20T16:38:51.098Z,70.06
2023-01-20T16:41:23.395Z,69.88
2023-01-20T16:43:51.313Z,70.03
2023-01-20T16:46:23.694Z,69.95
2023-01-20T16:48:50.530Z,70.14
2023-01-20T16:51:26.553Z,69.93
2023-01-20T16:53:54.291Z,70.10
2023-01-20T16:56:29.043Z,69.95
2023-01-20T16:59:01.361Z,70.24
2023-01-20T17:01:30.044Z,70.15
2023-01-20T17:03:59.124Z,70.45
2023-01-20T17:06:28.520Z,70.25
2023-01-20T17:08:56.966Z,70.28
2023-01-20T17:11:26.302Z,70.36
2023-01-20T17:13:53.703Z,70.43
2023-01-20T17:16:20.936Z,70.45
2023-01-20T17:18:51.571Z,70.33
2023-01-20T17:21:22.004Z,70.36
2023-01-20T17:23:52.259Z,70.41
2023-01-20T17:26:20.156Z,70.46
2023-01-20T17:28:47.001Z,70.38
2023-01-20T17:31:13.965Z,70.60
2023-01-20T17:33:45.523Z,70.43
2023-01-20T17:36:12.086Z,70.66
2023-01-20T17:38:41.697Z,70.58
2023-01-20T17:41:08.661Z,70.70
2023-01-20T17:43:40.498Z,70.79
2023-01-20T17:46:18.876Z,70.40
2023-01-20T17:48:46.075Z,70.73
2023-01-20T17:51:26.475Z,70.76
2023-01-20T17:53:53.726Z,71.05
2023-01-20T17:56:22.159Z,70.90
2023-01-20T17:58:50.388Z,70.90
2023-01-20T18:01:28.577Z,70.87
2023-01-20T18:04:00.433Z,71.10
2023-01-20T18:06:29.089Z,71.06
2023-01-20T18:08:59.306Z,70.99
2023-01-20T18:11:27.650Z,71.00
2023-01-20T18:13:56.486Z,70.96
2023-01-20T18:16:26.471Z,70.98
2023-01-20T18:18:58.418Z,71.08
2023-01-20T18:21:28.885Z,70.96
2023-01-20T18:23:56.236Z,70.96
2023-01-20T18:26:24.582Z,70.93
2023-01-20T18:28:55.368Z,70.80
2023-01-20T18:31:25.839Z,70.96
2023-01-20T18:33:57.094Z,70.80
2023-01-20T18:36:29.299Z,71.02
2023-01-20T18:39:01.388Z,70.89
2023-01-20T18:41:30.763Z,70.85
2023-01-20T18:43:57.718Z,70.91
2023-01-20T18:46:25.995Z,70.92
2023-01-20T18:48:54.551Z,70.79
2023-01-20T18:51:24.345Z,70.89
2023-01-20T18:54:02.032Z,70.74
2023-01-20T18:56:29.718Z,70.80
2023-01-20T18:58:56.957Z,70.85
2023-01-20T19:01:26.008Z,70.84
2023-01-20T19:03:53.242Z,70.82
2023-01-20T19:06:25.072Z,70.67
2023-01-20T19:08:52.522Z,70.82
2023-01-20T19:11:22.779Z,70.90
2023-01-20T19:13:50.993Z,70.81
2023-01-20T19:16:19.108Z,71.04
2023-01-20T19:18:54.242Z,70.88
2023-01-20T19:21:22.056Z,70.99
2023-01-20T19:23:50.465Z,70.95
2023-01-20T19:26:20.327Z,71.14
2023-01-20T19:28:48.481Z,70.98
2023-01-20T19:31:17.881Z,70.96
2023-01-20T19:33:48.814Z,71.14
2023-01-20T19:36:17.722Z,70.93
2023-01-20T19:38:44.986Z,71.02
2023-01-20T19:41:17.495Z,71.27
2023-01-20T19:43:44.799Z,71.59
2023-01-20T19:46:13.742Z,71.31
2023-01-20T19:48:49.405Z,71.15
2023-01-20T19:51:17.221Z,71.43
2023-01-20T19:53:44.078Z,71.32
2023-01-20T19:56:15.810Z,71.32
2023-01-20T19:58:43.106Z,71.50
2023-01-20T20:01:17.060Z,71.29
2023-01-20T20:03:44.188Z,71.55
2023-01-20T20:06:31.922Z,71.28
2023-01-20T20:09:03.619Z,71.30
2023-01-20T20:11:31.200Z,71.46
2023-01-20T20:13:59.762Z,71.24
2023-01-20T20:16:29.149Z,71.34
2023-01-20T20:18:56.564Z,71.25
2023-01-20T20:21:23.851Z,71.26
2023-01-20T20:23:51.747Z,71.23
2023-01-20T20:26:19.286Z,71.19
2023-01-20T20:28:46.198Z,71.23
2023-01-20T20:31:12.718Z,71.31
2023-01-20T20:33:39.245Z,71.05
2023-01-20T20:36:07.515Z,70.96
2023-01-20T20:38:36.594Z,70.98
2023-01-20T20:41:08.820Z,70.95
2023-01-20T20:43:36.199Z,71.02
2023-01-20T20:46:04.223Z,70.93
2023-01-20T20:48:31.272Z,71.01
2023-01-20T20:51:03.846Z,71.05
2023-01-20T20:53:30.436Z,71.03
2023-01-20T20:55:59.207Z,70.92
2023-01-20T20:58:26.111Z,70.82
2023-01-20T21:00:52.558Z,70.75
2023-01-20T21:03:19.621Z,71.02
2023-01-20T21:05:56.643Z,70.82
2023-01-20T21:08:25.312Z,70.98
2023-01-20T21:10:51.954Z,70.92
2023-01-20T21:13:18.704Z,70.90
2023-01-20T21:15:54.843Z,70.80
2023-01-20T21:18:21.323Z,70.93
2023-01-20T21:20:57.079Z,71.09
2023-01-20T21:23:24.272Z,71.01
2023-01-20T21:25:50.776Z,70.98
2023-01-20T21:28:17.224Z,70.81
2023-01-20T21:30:43.720Z,71.12
2023-01-20T21:33:15.353Z,70.89
2023-01-20T21:35:41.856Z,70.93
2023-01-20T21:38:08.359Z,71.10
2023-01-20T21:40:34.977Z,71.30
2023-01-20T21:43:20.120Z,71.24
2023-01-20T21:45:56.655Z,71.28
2023-01-20T21:48:42.032Z,71.32
2023-01-20T21:51:30.170Z,70.91
2023-01-20T21:53:56.574Z,71.48
2023-01-20T21:56:23.010Z,71.54
2023-01-20T21:58:49.487Z,71.33
2023-01-20T22:01:15.939Z,71.42
2023-01-20T22:03:42.446Z,71.53
2023-01-20T22:06:09.022Z,71.45
2023-01-20T22:08:35.461Z,71.67
2023-01-20T22:11:01.869Z,71.60
2023-01-20T22:13:28.506Z,71.65
2023-01-20T22:15:55.134Z,71.73
2023-01-20T22:18:21.598Z,71.50
2023-01-20T22:20:48.028Z,71.69
2023-01-20T22:23:14.472Z,71.64
2023-01-20T22:25:40.948Z,71.62
2023-01-20T22:28:07.408Z,71.68
2023-01-20T22:30:33.931Z,71.72
2023-01-20T22:33:00.475Z,71.77
2023-01-20T22:35:26.947Z,71.66
2023-01-20T22:37:53.434Z,71.67
2023-01-20T22:40:19.855Z,71.57
2023-01-20T22:42:46.304Z,71.58
2023-01-20T22:45:12.737Z,71.78
2023-01-20T22:47:39.121Z,71.72
2023-01-20T22:50:07.828Z,71.80
2023-01-20T22:52:34.268Z,71.66
2023-01-20T22:55:00.934Z,71.81
2023-01-20T22:57:29.971Z,71.81
2023-01-20T22:59:56.381Z,71.84
2023-01-20T23:02:22.900Z,71.80
2023-01-20T23:04:49.381Z,71.86
2023-01-20T23:07:15.815Z,71.68
2023-01-20T23:09:42.263Z,71.69
2023-01-20T23:12:08.665Z,71.72
2023-01-20T23:14:53.842Z,71.72
2023-01-20T23:17:20.274Z,71.76
2023-01-20T23:19:46.673Z,71.71
2023-01-20T23:22:13.107Z,71.74
2023-01-20T23:24:39.550Z,71.74
2023-01-20T23:27:05.991Z,71.49
2023-01-20T23:29:33.247Z,71.58
2023-01-20T23:31:59.714Z,71.61
2023-01-20T23:34:26.243Z,71.64
2023-01-20T23:36:52.702Z,71.77
2023-01-20T23:39:19.228Z,71.79
2023-01-20T23:41:45.668Z,71.88
2023-01-20T23:44:12.230Z,71.68
2023-01-20T23:46:38.642Z,71.76
2023-01-20T23:49:05.119Z,71.72
2023-01-20T23:51:31.621Z,71.73
2023-01-20T23:53:58.248Z,71.71
2023-01-20T23:56:25.344Z,71.73
2023-01-20T23:58:52.219Z,71.67
